sensor_id;sensor_type;location;lat;lon;timestamp;pressure;altitude;pressure_sealevel;temperature;humidity
66801;BME280;53703;50.326;19.122;2024-01-25T00:01:08;98445.92;;;19.04;43.92
66801;BME280;53703;50.326;19.122;2024-01-25T00:03:45;98437.43;;;19.02;43.94
66801;BME280;53703;50.326;19.122;2024-01-25T00:06:19;98439.20;;;19.06;43.61
66801;BME280;53703;50.326;19.122;2024-01-25T00:08:53;98444.73;;;19.00;43.99
66801;BME280;53703;50.326;19.122;2024-01-25T00:11:26;98442.70;;;19.04;43.81
66801;BME280;53703;50.326;19.122;2024-01-25T00:14:03;98441.75;;;18.98;43.94
66801;BME280;53703;50.326;19.122;2024-01-25T00:16:39;98437.67;;;18.99;43.90
66801;BME280;53703;50.326;19.122;2024-01-25T00:19:13;98439.15;;;18.98;43.82
66801;BME280;53703;50.326;19.122;2024-01-25T00:21:47;98448.76;;;18.96;43.89
66801;BME280;53703;50.326;19.122;2024-01-25T00:24:20;98441.45;;;19.05;43.65
66801;BME280;53703;50.326;19.122;2024-01-25T00:26:54;98448.98;;;19.09;43.49
66801;BME280;53703;50.326;19.122;2024-01-25T00:29:27;98447.06;;;19.05;43.55
66801;BME280;53703;50.326;19.122;2024-01-25T00:32:01;98440.63;;;19.07;43.57
66801;BME280;53703;50.326;19.122;2024-01-25T00:34:36;98452.33;;;19.11;43.31
66801;BME280;53703;50.326;19.122;2024-01-25T00:37:11;98452.07;;;19.13;43.25
66801;BME280;53703;50.326;19.122;2024-01-25T00:39:46;98454.82;;;19.12;43.22
66801;BME280;53703;50.326;19.122;2024-01-25T00:42:23;98453.66;;;19.07;43.41
66801;BME280;53703;50.326;19.122;2024-01-25T00:44:57;98453.87;;;18.96;43.48
66801;BME280;53703;50.326;19.122;2024-01-25T00:47:32;98464.15;;;18.93;43.54
66801;BME280;53703;50.326;19.122;2024-01-25T00:50:08;98460.67;;;18.96;43.32
66801;BME280;53703;50.326;19.122;2024-01-25T00:52:43;98468.83;;;18.89;43.71
66801;BME280;53703;50.326;19.122;2024-01-25T00:55:19;98463.77;;;18.97;43.38
66801;BME280;53703;50.326;19.122;2024-01-25T00:57:54;98466.17;;;18.98;43.41
66801;BME280;53703;50.326;19.122;2024-01-25T01:00:30;98465.52;;;18.97;43.35
66801;BME280;53703;50.326;19.122;2024-01-25T01:03:05;98464.14;;;18.92;43.37
66801;BME280;53703;50.326;19.122;2024-01-25T01:05:41;98458.21;;;18.92;43.48
66801;BME280;53703;50.326;19.122;2024-01-25T01:08:16;98458.17;;;18.97;43.29
66801;BME280;53703;50.326;19.122;2024-01-25T01:10:50;98459.86;;;18.95;43.41
66801;BME280;53703;50.326;19.122;2024-01-25T01:13:23;98456.34;;;18.93;43.40
66801;BME280;53703;50.326;19.122;2024-01-25T01:15:57;98460.58;;;18.95;43.28
66801;BME280;53703;50.326;19.122;2024-01-25T01:18:31;98464.52;;;18.98;43.13
66801;BME280;53703;50.326;19.122;2024-01-25T01:21:05;98461.98;;;19.01;43.15
66801;BME280;53703;50.326;19.122;2024-01-25T01:23:39;98466.38;;;19.07;42.99
66801;BME280;53703;50.326;19.122;2024-01-25T01:26:12;98461.21;;;19.12;42.81
66801;BME280;53703;50.326;19.122;2024-01-25T01:28:46;98458.12;;;19.15;42.71
66801;BME280;53703;50.326;19.122;2024-01-25T01:31:19;98457.31;;;19.11;42.97
66801;BME280;53703;50.326;19.122;2024-01-25T01:33:53;98459.11;;;19.10;42.79
66801;BME280;53703;50.326;19.122;2024-01-25T01:36:26;98457.84;;;19.03;43.02
66801;BME280;53703;50.326;19.122;2024-01-25T01:39:00;98452.60;;;19.08;42.90
66801;BME280;53703;50.326;19.122;2024-01-25T01:41:33;98457.41;;;19.08;42.88
66801;BME280;53703;50.326;19.122;2024-01-25T01:44:07;98457.63;;;19.11;42.82
66801;BME280;53703;50.326;19.122;2024-01-25T01:46:40;98457.19;;;19.12;42.72
66801;BME280;53703;50.326;19.122;2024-01-25T01:49:16;98454.56;;;19.05;42.86
66801;BME280;53703;50.326;19.122;2024-01-25T01:51:50;98454.52;;;19.13;42.79
66801;BME280;53703;50.326;19.122;2024-01-25T01:54:24;98460.61;;;19.22;42.43
66801;BME280;53703;50.326;19.122;2024-01-25T01:56:59;98461.86;;;19.17;42.55
66801;BME280;53703;50.326;19.122;2024-01-25T01:59:32;98458.63;;;19.18;42.57
66801;BME280;53703;50.326;19.122;2024-01-25T02:02:06;98450.04;;;19.19;42.47
66801;BME280;53703;50.326;19.122;2024-01-25T02:04:40;98453.96;;;19.13;42.48
66801;BME280;53703;50.326;19.122;2024-01-25T02:07:14;98451.77;;;19.15;42.60
66801;BME280;53703;50.326;19.122;2024-01-25T02:09:48;98449.75;;;19.09;42.64
66801;BME280;53703;50.326;19.122;2024-01-25T02:12:21;98442.86;;;19.04;42.67
66801;BME280;53703;50.326;19.122;2024-01-25T02:14:55;98449.73;;;19.08;42.61
66801;BME280;53703;50.326;19.122;2024-01-25T02:17:29;98444.90;;;19.07;42.50
66801;BME280;53703;50.326;19.122;2024-01-25T02:20:03;98439.11;;;19.00;42.64
66801;BME280;53703;50.326;19.122;2024-01-25T02:22:37;98428.92;;;19.03;42.58
66801;BME280;53703;50.326;19.122;2024-01-25T02:25:11;98426.92;;;18.99;42.60
66801;BME280;53703;50.326;19.122;2024-01-25T02:27:45;98426.48;;;18.93;42.70
66801;BME280;53703;50.326;19.122;2024-01-25T02:30:19;98426.52;;;18.91;42.88
66801;BME280;53703;50.326;19.122;2024-01-25T02:32:52;98424.38;;;18.98;42.75
66801;BME280;53703;50.326;19.122;2024-01-25T02:35:26;98425.60;;;18.93;42.76
66801;BME280;53703;50.326;19.122;2024-01-25T02:37:59;98411.77;;;19.00;42.62
66801;BME280;53703;50.326;19.122;2024-01-25T02:40:33;98418.54;;;18.95;42.69
66801;BME280;53703;50.326;19.122;2024-01-25T02:43:07;98416.89;;;18.99;42.60
66801;BME280;53703;50.326;19.122;2024-01-25T02:45:40;98421.54;;;19.02;42.56
66801;BME280;53703;50.326;19.122;2024-01-25T02:48:14;98421.52;;;19.01;42.47
66801;BME280;53703;50.326;19.122;2024-01-25T02:50:48;98422.58;;;19.02;42.54
66801;BME280;53703;50.326;19.122;2024-01-25T02:53:21;98417.79;;;19.06;42.52
66801;BME280;53703;50.326;19.122;2024-01-25T02:55:55;98411.96;;;19.05;42.40
66801;BME280;53703;50.326;19.122;2024-01-25T02:58:29;98410.62;;;19.08;42.27
66801;BME280;53703;50.326;19.122;2024-01-25T03:01:02;98419.02;;;19.13;42.07
66801;BME280;53703;50.326;19.122;2024-01-25T03:03:36;98417.19;;;19.27;41.86
66801;BME280;53703;50.326;19.122;2024-01-25T03:06:11;98413.84;;;19.34;41.81
66801;BME280;53703;50.326;19.122;2024-01-25T03:08:45;98412.52;;;19.34;41.69
66801;BME280;53703;50.326;19.122;2024-01-25T03:11:18;98417.73;;;19.27;41.82
66801;BME280;53703;50.326;19.122;2024-01-25T03:13:52;98425.36;;;19.29;41.66
66801;BME280;53703;50.326;19.122;2024-01-25T03:16:25;98432.33;;;19.30;41.69
66801;BME280;53703;50.326;19.122;2024-01-25T03:18:59;98441.77;;;19.24;41.73
66801;BME280;53703;50.326;19.122;2024-01-25T03:21:33;98444.61;;;19.31;41.56
66801;BME280;53703;50.326;19.122;2024-01-25T03:24:07;98447.99;;;19.30;41.55
66801;BME280;53703;50.326;19.122;2024-01-25T03:26:41;98445.56;;;19.24;41.58
66801;BME280;53703;50.326;19.122;2024-01-25T03:29:14;98443.14;;;19.28;41.58
66801;BME280;53703;50.326;19.122;2024-01-25T03:31:48;98442.52;;;19.21;41.76
66801;BME280;53703;50.326;19.122;2024-01-25T03:34:22;98440.45;;;19.25;41.59
66801;BME280;53703;50.326;19.122;2024-01-25T03:36:56;98447.66;;;19.23;41.49
66801;BME280;53703;50.326;19.122;2024-01-25T03:39:30;98445.98;;;19.16;41.60
66801;BME280;53703;50.326;19.122;2024-01-25T03:42:04;98446.15;;;19.18;41.70
66801;BME280;53703;50.326;19.122;2024-01-25T03:44:38;98448.19;;;19.20;41.58
66801;BME280;53703;50.326;19.122;2024-01-25T03:47:14;98448.58;;;19.09;41.69
66801;BME280;53703;50.326;19.122;2024-01-25T03:49:47;98448.70;;;19.19;41.56
66801;BME280;53703;50.326;19.122;2024-01-25T03:52:22;98450.79;;;19.16;41.55
66801;BME280;53703;50.326;19.122;2024-01-25T03:54:56;98449.60;;;19.12;41.75
66801;BME280;53703;50.326;19.122;2024-01-25T03:57:29;98454.13;;;19.13;41.66
66801;BME280;53703;50.326;19.122;2024-01-25T04:00:04;98462.58;;;19.17;41.76
66801;BME280;53703;50.326;19.122;2024-01-25T04:02:38;98458.98;;;19.15;41.69
66801;BME280;53703;50.326;19.122;2024-01-25T04:05:12;98464.27;;;19.19;41.47
66801;BME280;53703;50.326;19.122;2024-01-25T04:07:46;98466.70;;;19.22;41.32
66801;BME280;53703;50.326;19.122;2024-01-25T04:10:20;98467.18;;;19.18;41.49
66801;BME280;53703;50.326;19.122;2024-01-25T04:12:55;98462.04;;;19.18;41.52
66801;BME280;53703;50.326;19.122;2024-01-25T04:15:29;98465.42;;;19.13;41.70
66801;BME280;53703;50.326;19.122;2024-01-25T04:18:03;98457.03;;;19.16;41.49
66801;BME280;53703;50.326;19.122;2024-01-25T04:20:37;98461.27;;;19.15;41.49
66801;BME280;53703;50.326;19.122;2024-01-25T04:23:11;98454.23;;;19.14;41.57
66801;BME280;53703;50.326;19.122;2024-01-25T04:25:45;98456.61;;;19.11;41.60
66801;BME280;53703;50.326;19.122;2024-01-25T04:28:19;98461.73;;;19.13;41.41
66801;BME280;53703;50.326;19.122;2024-01-25T04:30:53;98454.45;;;19.18;41.43
66801;BME280;53703;50.326;19.122;2024-01-25T04:33:26;98452.91;;;19.20;41.36
66801;BME280;53703;50.326;19.122;2024-01-25T04:36:00;98454.90;;;19.17;41.28
66801;BME280;53703;50.326;19.122;2024-01-25T04:38:34;98454.52;;;19.13;41.49
66801;BME280;53703;50.326;19.122;2024-01-25T04:41:07;98452.65;;;19.15;41.44
66801;BME280;53703;50.326;19.122;2024-01-25T04:43:41;98452.91;;;19.20;41.14
66801;BME280;53703;50.326;19.122;2024-01-25T04:46:14;98447.13;;;19.23;41.01
66801;BME280;53703;50.326;19.122;2024-01-25T04:48:48;98443.64;;;19.19;41.29
66801;BME280;53703;50.326;19.122;2024-01-25T04:51:23;98436.66;;;19.17;41.33
66801;BME280;53703;50.326;19.122;2024-01-25T04:53:56;98438.44;;;19.19;41.20
66801;BME280;53703;50.326;19.122;2024-01-25T04:56:30;98430.20;;;19.22;41.06
66801;BME280;53703;50.326;19.122;2024-01-25T04:59:04;98438.48;;;19.21;41.37
66801;BME280;53703;50.326;19.122;2024-01-25T05:01:37;98438.98;;;19.19;41.23
66801;BME280;53703;50.326;19.122;2024-01-25T05:04:11;98439.77;;;19.19;41.20
66801;BME280;53703;50.326;19.122;2024-01-25T05:06:44;98441.06;;;19.16;41.27
66801;BME280;53703;50.326;19.122;2024-01-25T05:09:18;98446.07;;;19.21;41.09
66801;BME280;53703;50.326;19.122;2024-01-25T05:11:51;98445.56;;;19.16;41.28
66801;BME280;53703;50.326;19.122;2024-01-25T05:14:30;98448.31;;;19.23;41.05
66801;BME280;53703;50.326;19.122;2024-01-25T05:17:04;98448.40;;;19.19;41.20
66801;BME280;53703;50.326;19.122;2024-01-25T05:19:37;98444.11;;;19.15;41.19
66801;BME280;53703;50.326;19.122;2024-01-25T05:22:11;98440.63;;;19.11;41.31
66801;BME280;53703;50.326;19.122;2024-01-25T05:24:44;98455.13;;;19.08;41.37
66801;BME280;53703;50.326;19.122;2024-01-25T05:27:18;98454.43;;;19.17;41.20
66801;BME280;53703;50.326;19.122;2024-01-25T05:29:52;98444.02;;;19.10;41.30
66801;BME280;53703;50.326;19.122;2024-01-25T05:32:25;98446.42;;;19.11;41.29
66801;BME280;53703;50.326;19.122;2024-01-25T05:34:59;98438.74;;;19.11;41.28
66801;BME280;53703;50.326;19.122;2024-01-25T05:37:32;98435.38;;;19.16;41.06
66801;BME280;53703;50.326;19.122;2024-01-25T05:40:09;98430.24;;;19.13;41.12
66801;BME280;53703;50.326;19.122;2024-01-25T05:42:43;98434.13;;;19.13;41.18
66801;BME280;53703;50.326;19.122;2024-01-25T05:45:17;98432.41;;;19.11;41.20
66801;BME280;53703;50.326;19.122;2024-01-25T05:47:52;98429.51;;;19.11;41.22
66801;BME280;53703;50.326;19.122;2024-01-25T05:50:26;98444.08;;;19.13;41.12
66801;BME280;53703;50.326;19.122;2024-01-25T05:52:59;98443.84;;;19.13;41.18
66801;BME280;53703;50.326;19.122;2024-01-25T05:55:33;98426.80;;;19.19;40.94
66801;BME280;53703;50.326;19.122;2024-01-25T05:58:07;98425.13;;;19.07;41.21
66801;BME280;53703;50.326;19.122;2024-01-25T06:00:42;98427.60;;;19.15;41.11
66801;BME280;53703;50.326;19.122;2024-01-25T06:03:16;98424.75;;;19.15;41.16
66801;BME280;53703;50.326;19.122;2024-01-25T06:05:50;98430.25;;;19.21;40.97
66801;BME280;53703;50.326;19.122;2024-01-25T06:08:24;98437.42;;;19.16;41.10
66801;BME280;53703;50.326;19.122;2024-01-25T06:10:58;98439.94;;;19.15;41.01
66801;BME280;53703;50.326;19.122;2024-01-25T06:13:32;98440.54;;;19.18;40.98
66801;BME280;53703;50.326;19.122;2024-01-25T06:16:07;98441.41;;;19.22;40.82
66801;BME280;53703;50.326;19.122;2024-01-25T06:18:40;98436.80;;;19.20;40.90
66801;BME280;53703;50.326;19.122;2024-01-25T06:21:14;98438.77;;;19.20;40.93
66801;BME280;53703;50.326;19.122;2024-01-25T06:23:47;98446.10;;;19.23;40.89
66801;BME280;53703;50.326;19.122;2024-01-25T06:26:21;98442.62;;;19.22;40.95
66801;BME280;53703;50.326;19.122;2024-01-25T06:28:55;98450.53;;;19.23;40.83
66801;BME280;53703;50.326;19.122;2024-01-25T06:31:29;98444.16;;;19.17;41.02
66801;BME280;53703;50.326;19.122;2024-01-25T06:34:02;98446.33;;;19.18;40.93
66801;BME280;53703;50.326;19.122;2024-01-25T06:36:36;98447.34;;;19.10;40.94
66801;BME280;53703;50.326;19.122;2024-01-25T06:39:10;98443.90;;;19.08;41.05
66801;BME280;53703;50.326;19.122;2024-01-25T06:41:44;98445.55;;;19.04;41.07
66801;BME280;53703;50.326;19.122;2024-01-25T06:44:18;98451.02;;;19.05;41.13
66801;BME280;53703;50.326;19.122;2024-01-25T06:46:52;98448.54;;;19.11;40.98
66801;BME280;53703;50.326;19.122;2024-01-25T06:49:25;98455.54;;;19.13;40.83
66801;BME280;53703;50.326;19.122;2024-01-25T06:51:59;98456.58;;;19.10;40.89
66801;BME280;53703;50.326;19.122;2024-01-25T06:54:33;98464.25;;;19.11;40.89
66801;BME280;53703;50.326;19.122;2024-01-25T06:57:07;98467.49;;;19.07;40.96
66801;BME280;53703;50.326;19.122;2024-01-25T06:59:41;98478.47;;;19.06;41.00
66801;BME280;53703;50.326;19.122;2024-01-25T07:02:15;98475.12;;;19.08;40.89
66801;BME280;53703;50.326;19.122;2024-01-25T07:04:49;98469.82;;;19.15;40.80
66801;BME280;53703;50.326;19.122;2024-01-25T07:07:26;98475.98;;;19.16;40.95
66801;BME280;53703;50.326;19.122;2024-01-25T07:10:00;98479.39;;;19.16;40.91
66801;BME280;53703;50.326;19.122;2024-01-25T07:12:34;98487.73;;;19.18;40.92
66801;BME280;53703;50.326;19.122;2024-01-25T07:15:09;98498.23;;;19.18;40.70
66801;BME280;53703;50.326;19.122;2024-01-25T07:17:43;98503.74;;;19.20;40.84
66801;BME280;53703;50.326;19.122;2024-01-25T07:20:16;98508.98;;;19.18;40.82
66801;BME280;53703;50.326;19.122;2024-01-25T07:22:53;98510.64;;;19.21;40.79
66801;BME280;53703;50.326;19.122;2024-01-25T07:25:27;98512.89;;;19.23;40.84
66801;BME280;53703;50.326;19.122;2024-01-25T07:28:00;98515.38;;;19.28;40.66
66801;BME280;53703;50.326;19.122;2024-01-25T07:30:34;98517.42;;;19.35;40.65
66801;BME280;53703;50.326;19.122;2024-01-25T07:33:08;98520.63;;;19.29;40.81
66801;BME280;53703;50.326;19.122;2024-01-25T07:35:42;98518.49;;;19.29;40.78
66801;BME280;53703;50.326;19.122;2024-01-25T07:38:18;98519.27;;;19.25;40.85
66801;BME280;53703;50.326;19.122;2024-01-25T07:40:51;98525.27;;;19.21;40.80
66801;BME280;53703;50.326;19.122;2024-01-25T07:43:25;98517.70;;;19.29;40.70
66801;BME280;53703;50.326;19.122;2024-01-25T07:45:59;98515.40;;;19.32;40.72
66801;BME280;53703;50.326;19.122;2024-01-25T07:48:32;98522.23;;;19.34;40.73
66801;BME280;53703;50.326;19.122;2024-01-25T07:51:13;98515.39;;;19.29;40.74
66801;BME280;53703;50.326;19.122;2024-01-25T07:53:47;98519.36;;;19.30;40.83
66801;BME280;53703;50.326;19.122;2024-01-25T07:56:21;98524.98;;;19.33;40.73
66801;BME280;53703;50.326;19.122;2024-01-25T07:58:54;98530.98;;;19.33;40.84
66801;BME280;53703;50.326;19.122;2024-01-25T08:01:29;98529.44;;;19.28;40.93
66801;BME280;53703;50.326;19.122;2024-01-25T08:04:03;98537.39;;;19.23;40.99
66801;BME280;53703;50.326;19.122;2024-01-25T08:06:37;98546.40;;;19.23;40.97
66801;BME280;53703;50.326;19.122;2024-01-25T08:09:10;98548.70;;;19.15;41.23
66801;BME280;53703;50.326;19.122;2024-01-25T08:11:44;98545.87;;;19.24;41.10
66801;BME280;53703;50.326;19.122;2024-01-25T08:14:18;98543.49;;;19.27;41.02
66801;BME280;53703;50.326;19.122;2024-01-25T08:16:51;98540.79;;;19.23;41.11
66801;BME280;53703;50.326;19.122;2024-01-25T08:19:25;98538.15;;;19.28;40.92
66801;BME280;53703;50.326;19.122;2024-01-25T08:21:59;98532.41;;;19.30;40.82
66801;BME280;53703;50.326;19.122;2024-01-25T08:24:33;98530.89;;;19.25;40.99
66801;BME280;53703;50.326;19.122;2024-01-25T08:27:07;98526.04;;;19.20;41.05
66801;BME280;53703;50.326;19.122;2024-01-25T08:29:43;98521.48;;;19.25;41.16
66801;BME280;53703;50.326;19.122;2024-01-25T08:32:16;98520.10;;;19.23;41.08
66801;BME280;53703;50.326;19.122;2024-01-25T08:34:50;98518.91;;;19.23;41.00
66801;BME280;53703;50.326;19.122;2024-01-25T08:37:24;98516.30;;;19.22;41.14
66801;BME280;53703;50.326;19.122;2024-01-25T08:39:58;98514.63;;;19.19;41.13
66801;BME280;53703;50.326;19.122;2024-01-25T08:42:32;98514.71;;;19.23;41.01
66801;BME280;53703;50.326;19.122;2024-01-25T08:45:09;98516.85;;;19.26;40.99
66801;BME280;53703;50.326;19.122;2024-01-25T08:47:47;98519.48;;;19.24;40.83
66801;BME280;53703;50.326;19.122;2024-01-25T08:50:21;98522.73;;;19.17;40.95
66801;BME280;53703;50.326;19.122;2024-01-25T08:52:58;98519.96;;;19.13;41.12
66801;BME280;53703;50.326;19.122;2024-01-25T08:55:40;98529.90;;;19.16;40.92
66801;BME280;53703;50.326;19.122;2024-01-25T08:58:14;98532.58;;;19.12;41.08
66801;BME280;53703;50.326;19.122;2024-01-25T09:00:48;98541.30;;;19.11;41.03
66801;BME280;53703;50.326;19.122;2024-01-25T09:03:23;98544.37;;;19.06;41.10
66801;BME280;53703;50.326;19.122;2024-01-25T09:06:18;98553.69;;;18.99;41.37
66801;BME280;53703;50.326;19.122;2024-01-25T09:08:52;98556.11;;;19.02;41.26
66801;BME280;53703;50.326;19.122;2024-01-25T09:11:26;98558.95;;;19.01;41.13
66801;BME280;53703;50.326;19.122;2024-01-25T09:14:00;98556.69;;;19.00;41.29
66801;BME280;53703;50.326;19.122;2024-01-25T09:16:34;98567.41;;;18.89;41.33
66801;BME280;53703;50.326;19.122;2024-01-25T09:19:09;98563.19;;;18.91;41.33
66801;BME280;53703;50.326;19.122;2024-01-25T09:21:45;98564.91;;;19.00;41.12
66801;BME280;53703;50.326;19.122;2024-01-25T09:24:19;98567.39;;;19.04;41.30
66801;BME280;53703;50.326;19.122;2024-01-25T09:26:52;98566.55;;;19.08;41.06
66801;BME280;53703;50.326;19.122;2024-01-25T09:29:27;98561.20;;;19.13;41.04
66801;BME280;53703;50.326;19.122;2024-01-25T09:32:01;98559.64;;;19.10;41.06
66801;BME280;53703;50.326;19.122;2024-01-25T09:34:35;98565.64;;;19.07;40.99
66801;BME280;53703;50.326;19.122;2024-01-25T09:37:12;98565.05;;;19.05;40.95
66801;BME280;53703;50.326;19.122;2024-01-25T09:39:47;98554.83;;;19.04;41.13
66801;BME280;53703;50.326;19.122;2024-01-25T09:42:21;98564.15;;;19.02;41.22
66801;BME280;53703;50.326;19.122;2024-01-25T09:44:55;98561.95;;;19.05;41.29
66801;BME280;53703;50.326;19.122;2024-01-25T09:47:28;98561.04;;;19.00;41.46
66801;BME280;53703;50.326;19.122;2024-01-25T09:50:05;98559.78;;;19.03;41.47
66801;BME280;53703;50.326;19.122;2024-01-25T09:52:41;98560.96;;;19.06;42.36
66801;BME280;53703;50.326;19.122;2024-01-25T09:55:18;98559.91;;;18.99;42.05
66801;BME280;53703;50.326;19.122;2024-01-25T09:57:55;98559.80;;;18.91;41.93
66801;BME280;53703;50.326;19.122;2024-01-25T10:00:29;98562.11;;;18.89;41.85
66801;BME280;53703;50.326;19.122;2024-01-25T10:03:06;98563.80;;;18.90;41.79
66801;BME280;53703;50.326;19.122;2024-01-25T10:05:40;98565.14;;;18.94;41.51
66801;BME280;53703;50.326;19.122;2024-01-25T10:08:16;98563.23;;;18.90;41.75
66801;BME280;53703;50.326;19.122;2024-01-25T10:10:53;98564.02;;;18.96;41.38
66801;BME280;53703;50.326;19.122;2024-01-25T10:13:27;98569.25;;;18.93;41.39
66801;BME280;53703;50.326;19.122;2024-01-25T10:16:01;98571.04;;;18.89;41.52
66801;BME280;53703;50.326;19.122;2024-01-25T10:18:35;98572.71;;;18.86;41.61
66801;BME280;53703;50.326;19.122;2024-01-25T10:21:10;98570.91;;;18.83;42.00
66801;BME280;53703;50.326;19.122;2024-01-25T10:23:47;98573.16;;;18.82;42.36
66801;BME280;53703;50.326;19.122;2024-01-25T10:26:22;98572.19;;;18.85;42.80
66801;BME280;53703;50.326;19.122;2024-01-25T10:28:56;98571.94;;;18.83;42.87
66801;BME280;53703;50.326;19.122;2024-01-25T10:31:39;98576.65;;;18.79;43.14
66801;BME280;53703;50.326;19.122;2024-01-25T10:34:13;98578.12;;;18.84;43.19
66801;BME280;53703;50.326;19.122;2024-01-25T10:36:47;98581.60;;;18.88;43.30
66801;BME280;53703;50.326;19.122;2024-01-25T10:39:25;98580.35;;;19.01;44.35
66801;BME280;53703;50.326;19.122;2024-01-25T10:41:59;98581.23;;;18.92;45.06
66801;BME280;53703;50.326;19.122;2024-01-25T10:44:33;98578.42;;;18.84;47.09
66801;BME280;53703;50.326;19.122;2024-01-25T10:47:08;98574.98;;;18.79;47.07
66801;BME280;53703;50.326;19.122;2024-01-25T10:49:47;98574.94;;;18.80;46.96
66801;BME280;53703;50.326;19.122;2024-01-25T10:52:22;98575.55;;;18.77;46.82
66801;BME280;53703;50.326;19.122;2024-01-25T10:54:57;98575.09;;;18.83;46.06
66801;BME280;53703;50.326;19.122;2024-01-25T10:57:36;98574.70;;;18.80;46.52
66801;BME280;53703;50.326;19.122;2024-01-25T11:00:14;98574.90;;;18.89;45.04
66801;BME280;53703;50.326;19.122;2024-01-25T11:02:50;98586.80;;;18.90;44.57
66801;BME280;53703;50.326;19.122;2024-01-25T11:05:26;98592.29;;;18.89;44.18
66801;BME280;53703;50.326;19.122;2024-01-25T11:08:01;98594.19;;;18.89;43.98
66801;BME280;53703;50.326;19.122;2024-01-25T11:10:37;98597.23;;;18.88;44.92
66801;BME280;53703;50.326;19.122;2024-01-25T11:13:16;98592.13;;;18.88;45.40
66801;BME280;53703;50.326;19.122;2024-01-25T11:15:50;98597.65;;;18.92;45.14
66801;BME280;53703;50.326;19.122;2024-01-25T11:18:26;98604.48;;;18.87;44.94
66801;BME280;53703;50.326;19.122;2024-01-25T11:21:05;98610.52;;;18.88;46.04
66801;BME280;53703;50.326;19.122;2024-01-25T11:23:44;98615.79;;;18.81;45.53
66801;BME280;53703;50.326;19.122;2024-01-25T11:26:19;98619.65;;;18.86;45.46
66801;BME280;53703;50.326;19.122;2024-01-25T11:28:57;98627.58;;;18.88;45.93
66801;BME280;53703;50.326;19.122;2024-01-25T11:31:32;98629.52;;;18.86;45.91
66801;BME280;53703;50.326;19.122;2024-01-25T11:34:09;98629.23;;;18.84;45.89
66801;BME280;53703;50.326;19.122;2024-01-25T11:36:44;98626.02;;;18.85;45.27
66801;BME280;53703;50.326;19.122;2024-01-25T11:39:18;98623.97;;;18.76;45.87
66801;BME280;53703;50.326;19.122;2024-01-25T11:41:53;98623.02;;;18.82;46.08
66801;BME280;53703;50.326;19.122;2024-01-25T11:44:27;98625.66;;;18.81;46.11
66801;BME280;53703;50.326;19.122;2024-01-25T11:47:01;98628.06;;;18.79;46.47
66801;BME280;53703;50.326;19.122;2024-01-25T11:49:35;98632.48;;;18.75;45.60
66801;BME280;53703;50.326;19.122;2024-01-25T11:52:10;98639.86;;;18.83;46.23
66801;BME280;53703;50.326;19.122;2024-01-25T11:54:43;98643.71;;;18.88;46.49
66801;BME280;53703;50.326;19.122;2024-01-25T11:57:17;98647.74;;;18.70;46.79
66801;BME280;53703;50.326;19.122;2024-01-25T11:59:51;98651.98;;;18.90;44.90
66801;BME280;53703;50.326;19.122;2024-01-25T12:02:26;98655.67;;;18.93;44.56
66801;BME280;53703;50.326;19.122;2024-01-25T12:05:00;98656.63;;;18.90;44.54
66801;BME280;53703;50.326;19.122;2024-01-25T12:07:35;98662.55;;;18.93;44.50
66801;BME280;53703;50.326;19.122;2024-01-25T12:10:15;98653.80;;;18.90;44.43
66801;BME280;53703;50.326;19.122;2024-01-25T12:12:49;98657.33;;;18.99;44.42
66801;BME280;53703;50.326;19.122;2024-01-25T12:15:23;98667.58;;;18.98;44.20
66801;BME280;53703;50.326;19.122;2024-01-25T12:17:57;98666.92;;;18.97;44.03
66801;BME280;53703;50.326;19.122;2024-01-25T12:20:32;98665.20;;;18.98;43.94
66801;BME280;53703;50.326;19.122;2024-01-25T12:23:06;98670.38;;;18.84;45.19
66801;BME280;53703;50.326;19.122;2024-01-25T12:25:43;98667.02;;;18.89;47.14
66801;BME280;53703;50.326;19.122;2024-01-25T12:28:18;98673.42;;;18.86;45.85
66801;BME280;53703;50.326;19.122;2024-01-25T12:30:53;98670.64;;;18.85;44.52
66801;BME280;53703;50.326;19.122;2024-01-25T12:33:27;98674.27;;;18.81;45.03
66801;BME280;53703;50.326;19.122;2024-01-25T12:36:00;98682.42;;;18.80;45.99
66801;BME280;53703;50.326;19.122;2024-01-25T12:38:34;98680.05;;;19.01;44.87
66801;BME280;53703;50.326;19.122;2024-01-25T12:41:08;98684.79;;;18.92;44.94
66801;BME280;53703;50.326;19.122;2024-01-25T12:43:42;98685.41;;;18.97;44.87
66801;BME280;53703;50.326;19.122;2024-01-25T12:46:16;98685.23;;;18.96;45.25
66801;BME280;53703;50.326;19.122;2024-01-25T12:48:59;98686.42;;;19.05;44.75
66801;BME280;53703;50.326;19.122;2024-01-25T12:51:32;98686.35;;;18.91;43.67
66801;BME280;53703;50.326;19.122;2024-01-25T12:54:06;98685.59;;;18.92;44.18
66801;BME280;53703;50.326;19.122;2024-01-25T12:56:41;98694.05;;;18.86;44.79
66801;BME280;53703;50.326;19.122;2024-01-25T12:59:15;98691.68;;;18.86;45.30
66801;BME280;53703;50.326;19.122;2024-01-25T13:01:49;98697.59;;;18.88;45.50
66801;BME280;53703;50.326;19.122;2024-01-25T13:04:23;98696.98;;;18.83;46.40
66801;BME280;53703;50.326;19.122;2024-01-25T13:06:58;98680.26;;;18.97;45.45
66801;BME280;53703;50.326;19.122;2024-01-25T13:09:31;98685.80;;;19.06;44.95
66801;BME280;53703;50.326;19.122;2024-01-25T13:12:07;98687.55;;;19.06;44.93
66801;BME280;53703;50.326;19.122;2024-01-25T13:14:40;98688.88;;;18.97;45.41
66801;BME280;53703;50.326;19.122;2024-01-25T13:17:14;98696.55;;;18.88;45.95
66801;BME280;53703;50.326;19.122;2024-01-25T13:19:47;98698.81;;;18.90;46.30
66801;BME280;53703;50.326;19.122;2024-01-25T13:22:21;98697.13;;;19.07;45.36
66801;BME280;53703;50.326;19.122;2024-01-25T13:24:56;98700.04;;;19.09;45.29
66801;BME280;53703;50.326;19.122;2024-01-25T13:27:30;98694.82;;;19.12;45.25